createdAt,value
2022-08-18T00:01:40.638Z,18.50
2022-08-18T00:04:22.833Z,18.50
2022-08-18T00:06:56.683Z,18.40
2022-08-18T00:09:23.347Z,18.30
2022-08-18T00:11:50.028Z,18.30
2022-08-18T00:14:21.582Z,18.30
2022-08-18T00:16:54.022Z,18.50
2022-08-18T00:19:45.656Z,18.40
2022-08-18T00:22:14.808Z,18.30
2022-08-18T00:24:47.874Z,18.20
2022-08-18T00:27:29.803Z,18.20
2022-08-18T00:30:02.145Z,18.10
2022-08-18T00:32:33.523Z,18.00
2022-08-18T00:35:07.313Z,17.90
2022-08-18T00:37:34.473Z,18.00
2022-08-18T00:40:01.178Z,18.00
2022-08-18T00:42:30.596Z,17.90
2022-08-18T00:45:06.108Z,17.90
2022-08-18T00:47:42.387Z,17.90
2022-08-18T00:50:16.716Z,17.90
2022-08-18T00:52:53.656Z,17.90
2022-08-18T00:55:22.331Z,17.90
2022-08-18T00:57:52.789Z,17.80
2022-08-18T01:00:19.697Z,17.80
2022-08-18T01:02:51.601Z,17.90
2022-08-18T01:05:26.335Z,17.90
2022-08-18T01:07:53.728Z,17.90
2022-08-18T01:10:23.648Z,17.80
2022-08-18T01:12:53.764Z,17.70
2022-08-18T01:15:28.901Z,17.50
2022-08-18T01:18:23.687Z,17.40
2022-08-18T01:21:24.283Z,17.30
2022-08-18T01:23:53.429Z,17.20
2022-08-18T01:26:23.143Z,17.30
2022-08-18T01:28:50.544Z,17.30
2022-08-18T01:31:56.064Z,17.30
2022-08-18T01:34:26.382Z,17.20
2022-08-18T01:36:54.842Z,17.20
2022-08-18T01:41:24.377Z,17.20
2022-08-18T01:42:10.399Z,17.30
2022-08-18T01:44:37.585Z,17.20
2022-08-18T01:47:04.343Z,17.00
2022-08-18T01:49:31.021Z,16.90
2022-08-18T01:51:57.870Z,16.90
2022-08-18T01:54:28.153Z,16.80
2022-08-18T01:56:56.863Z,16.90
2022-08-18T01:59:23.878Z,16.90
2022-08-18T02:01:55.584Z,17.00
2022-08-18T02:04:36.965Z,16.90
2022-08-18T02:07:07.720Z,16.90
2022-08-18T02:09:36.459Z,16.90
2022-08-18T02:12:05.836Z,16.90
2022-08-18T02:14:33.106Z,17.00
2022-08-18T02:17:02.326Z,17.10
2022-08-18T02:19:34.548Z,17.10
2022-08-18T02:22:01.867Z,17.10
2022-08-18T02:24:28.549Z,17.20
2022-08-18T02:26:55.317Z,17.30
2022-08-18T02:29:21.995Z,17.30
2022-08-18T02:31:49.123Z,17.30
2022-08-18T02:34:17.296Z,17.30
2022-08-18T02:36:44.276Z,17.40
2022-08-18T02:39:11.496Z,17.40
2022-08-18T02:41:38.329Z,17.40
2022-08-18T02:44:07.630Z,17.50
2022-08-18T02:46:35.579Z,17.50
2022-08-18T02:49:02.922Z,17.50
2022-08-18T02:51:29.915Z,17.50
2022-08-18T02:53:59.169Z,17.50
2022-08-18T02:56:40.059Z,17.50
2022-08-18T02:59:12.924Z,17.50
2022-08-18T03:01:43.348Z,17.60
2022-08-18T03:04:14.156Z,17.50
2022-08-18T03:06:41.243Z,17.70
2022-08-18T03:09:09.656Z,17.60
2022-08-18T03:11:37.150Z,17.60
2022-08-18T03:14:11.099Z,17.50
2022-08-18T03:16:53.268Z,17.50
2022-08-18T03:19:29.403Z,17.60
2022-08-18T03:21:59.368Z,17.50
2022-08-18T03:24:31.386Z,17.50
2022-08-18T03:26:59.150Z,17.50
2022-08-18T03:29:31.658Z,17.40
2022-08-18T03:32:01.109Z,17.40
2022-08-18T03:34:28.170Z,17.40
2022-08-18T03:36:54.923Z,17.30
2022-08-18T03:39:23.655Z,17.30
2022-08-18T03:41:59.233Z,17.40
2022-08-18T03:44:33.245Z,17.40
2022-08-18T03:47:03.700Z,17.50
2022-08-18T03:49:33.383Z,17.60
2022-08-18T03:52:00.831Z,17.50
2022-08-18T03:54:31.937Z,17.50
2022-08-18T03:57:00.060Z,17.50
2022-08-18T03:59:27.737Z,17.50
2022-08-18T04:01:55.489Z,17.50
2022-08-18T04:04:25.372Z,17.50
2022-08-18T04:06:56.944Z,17.60
2022-08-18T04:09:25.470Z,17.60
2022-08-18T04:11:52.858Z,17.50
2022-08-18T04:14:23.947Z,17.50
2022-08-18T04:16:50.764Z,17.60
2022-08-18T04:19:25.232Z,17.60
2022-08-18T04:21:57.336Z,17.60
2022-08-18T04:24:26.566Z,17.60
2022-08-18T04:26:56.232Z,17.60
2022-08-18T04:29:23.496Z,17.60
2022-08-18T04:31:51.469Z,17.60
2022-08-18T04:34:20.453Z,17.50
2022-08-18T04:36:48.557Z,17.50
2022-08-18T04:39:15.569Z,17.50
2022-08-18T04:41:44.207Z,17.50
2022-08-18T04:44:12.618Z,17.50
2022-08-18T04:46:54.689Z,17.50
2022-08-18T04:49:25.524Z,17.50
2022-08-18T04:52:39.394Z,17.40
2022-08-18T04:55:00.909Z,17.40
2022-08-18T04:57:28.897Z,17.40
2022-08-18T04:59:59.854Z,17.40
2022-08-18T05:02:26.627Z,17.40
2022-08-18T05:04:53.357Z,17.50
2022-08-18T05:07:25.684Z,17.40
2022-08-18T05:09:54.991Z,17.50
2022-08-18T05:12:25.760Z,17.50
2022-08-18T05:14:53.845Z,17.40
2022-08-18T05:17:20.839Z,17.40
2022-08-18T05:19:47.718Z,17.50
2022-08-18T05:22:19.548Z,17.50
2022-08-18T05:24:55.673Z,17.50
2022-08-18T05:27:22.425Z,17.60
2022-08-18T05:29:51.612Z,17.60
2022-08-18T05:32:41.806Z,17.70
2022-08-18T05:35:12.183Z,17.70
2022-08-18T05:38:19.278Z,17.80
2022-08-18T05:40:56.063Z,17.80
2022-08-18T05:43:22.821Z,17.90
2022-08-18T05:45:51.646Z,18.00
2022-08-18T05:48:18.974Z,18.00
2022-08-18T05:50:45.884Z,18.00
2022-08-18T05:53:14.983Z,18.20
2022-08-18T05:56:23.573Z,18.20
2022-08-18T05:58:55.598Z,18.20
2022-08-18T06:01:27.867Z,18.20
2022-08-18T06:04:21.250Z,18.30
2022-08-18T06:06:49.490Z,18.30
2022-08-18T06:09:37.861Z,18.30
2022-08-18T06:12:17.770Z,18.30
2022-08-18T06:14:44.709Z,18.20
2022-08-18T06:17:41.861Z,18.10
2022-08-18T06:21:05.457Z,18.00
2022-08-18T06:23:36.224Z,18.00
2022-08-18T06:26:05.850Z,18.10
2022-08-18T06:28:52.432Z,18.10
2022-08-18T06:31:52.939Z,18.20
2022-08-18T06:34:54.630Z,18.00
2022-08-18T06:38:07.244Z,18.10
2022-08-18T06:40:34.031Z,18.10
2022-08-18T06:43:02.260Z,18.10
2022-08-18T06:45:40.097Z,18.20
2022-08-18T06:48:17.306Z,18.10
2022-08-18T06:50:51.997Z,18.10
2022-08-18T06:53:28.057Z,18.20
2022-08-18T06:55:55.976Z,18.20
2022-08-18T06:58:32.330Z,18.20
2022-08-18T07:01:06.937Z,18.20
2022-08-18T07:03:36.710Z,18.30
2022-08-18T07:06:06.624Z,18.40
2022-08-18T07:08:36.237Z,18.40
2022-08-18T07:11:29.477Z,18.30
2022-08-18T07:14:17.057Z,18.20
2022-08-18T07:17:00.779Z,18.30
2022-08-18T07:19:31.899Z,18.30
2022-08-18T07:22:07.234Z,18.20
2022-08-18T07:24:46.732Z,18.30
2022-08-18T07:27:17.474Z,18.30
2022-08-18T07:30:09.606Z,18.20
2022-08-18T07:33:02.153Z,18.10
2022-08-18T07:35:52.248Z,18.20
2022-08-18T07:38:45.251Z,18.10
2022-08-18T07:41:20.320Z,18.20
2022-08-18T07:43:53.843Z,18.20
2022-08-18T07:46:44.777Z,18.20
2022-08-18T07:49:22.230Z,18.10
2022-08-18T07:51:58.994Z,18.10
2022-08-18T07:54:49.293Z,18.10
2022-08-18T07:57:42.077Z,18.00
2022-08-18T08:03:45.175Z,18.00
2022-08-18T08:06:25.273Z,17.90
2022-08-18T08:09:51.801Z,18.00
2022-08-18T08:12:36.951Z,18.20
2022-08-18T08:15:42.231Z,18.50
2022-08-18T08:18:25.192Z,18.60
2022-08-18T08:21:00.346Z,18.70
2022-08-18T08:23:47.739Z,18.90
2022-08-18T08:26:35.483Z,19.00
2022-08-18T08:29:02.219Z,19.00
2022-08-18T08:31:39.140Z,19.00
2022-08-18T08:34:25.126Z,19.00
2022-08-18T08:37:00.883Z,19.00
2022-08-18T08:39:51.266Z,18.90
2022-08-18T08:42:30.919Z,19.10
2022-08-18T08:45:10.931Z,19.00
2022-08-18T08:47:50.907Z,19.10
2022-08-18T08:50:26.189Z,19.10
2022-08-18T08:53:02.012Z,19.20
2022-08-18T08:55:33.989Z,19.30
2022-08-18T08:58:26.540Z,19.40
2022-08-18T09:00:55.518Z,19.40
2022-08-18T09:03:37.278Z,19.40
2022-08-18T09:06:47.636Z,19.50
2022-08-18T09:09:45.017Z,19.50
2022-08-18T09:12:46.860Z,19.50
2022-08-18T09:15:35.862Z,19.80
2022-08-18T09:18:24.469Z,20.10
2022-08-18T09:21:18.201Z,20.10
2022-08-18T09:23:50.788Z,20.30
2022-08-18T09:26:55.070Z,20.50
2022-08-18T09:29:44.887Z,20.50
2022-08-18T09:32:22.670Z,20.30
2022-08-18T09:35:42.284Z,20.20
2022-08-18T09:38:45.238Z,20.10
2022-08-18T09:41:33.955Z,20.30
2022-08-18T09:47:02.040Z,20.50
2022-08-18T09:49:29.317Z,20.60
2022-08-18T09:50:38.147Z,20.40
2022-08-18T09:52:26.237Z,20.80
2022-08-18T09:54:59.102Z,20.80
2022-08-18T09:57:31.609Z,20.80
2022-08-18T10:00:12.347Z,20.80
2022-08-18T10:02:40.241Z,20.70
2022-08-18T10:05:15.839Z,20.80
2022-08-18T10:08:07.208Z,20.90
2022-08-18T10:11:08.991Z,21.00
2022-08-18T10:13:58.446Z,21.00
2022-08-18T10:17:16.022Z,20.80
2022-08-18T10:20:02.178Z,20.80
2022-08-18T10:22:48.422Z,21.10
2022-08-18T10:25:32.649Z,21.00
2022-08-18T10:27:59.529Z,21.10
2022-08-18T10:30:30.520Z,21.30
2022-08-18T10:33:17.287Z,21.20
2022-08-18T10:36:00.938Z,21.20
2022-08-18T10:38:45.859Z,21.30
2022-08-18T10:41:30.204Z,21.30
2022-08-18T10:44:00.047Z,21.30
2022-08-18T10:46:39.589Z,21.30
2022-08-18T10:49:13.259Z,21.40
2022-08-18T10:52:03.050Z,21.50
2022-08-18T10:57:47.644Z,21.50
2022-08-18T11:00:21.505Z,21.60
2022-08-18T11:03:01.898Z,21.60
2022-08-18T11:05:31.912Z,21.70
2022-08-18T11:08:03.947Z,21.80
2022-08-18T11:11:06.655Z,21.80
2022-08-18T11:14:07.369Z,21.70
2022-08-18T11:16:44.819Z,21.60
2022-08-18T11:19:14.582Z,21.70
2022-08-18T11:21:45.894Z,21.60
2022-08-18T11:24:32.390Z,21.60
2022-08-18T11:27:17.079Z,21.40
2022-08-18T11:29:44.498Z,21.30
2022-08-18T11:32:15.127Z,21.40
2022-08-18T11:34:53.381Z,21.40
2022-08-18T11:37:49.686Z,21.60
2022-08-18T11:40:51.825Z,21.80
2022-08-18T11:43:21.692Z,21.90
2022-08-18T11:45:53.005Z,22.20
2022-08-18T11:48:25.151Z,22.30
2022-08-18T11:50:56.549Z,22.40
2022-08-18T11:53:35.177Z,22.40
2022-08-18T11:56:14.223Z,22.40
2022-08-18T11:58:50.558Z,22.50
2022-08-18T12:01:51.506Z,22.40
2022-08-18T12:04:37.615Z,22.40
2022-08-18T12:07:15.874Z,22.60
2022-08-18T12:10:26.406Z,22.70
2022-08-18T12:12:57.416Z,22.80
2022-08-18T12:15:29.631Z,22.80
2022-08-18T12:18:11.286Z,22.70
2022-08-18T12:20:53.371Z,22.80
2022-08-18T12:23:20.073Z,22.80
2022-08-18T12:25:48.122Z,22.90
2022-08-18T12:28:19.320Z,22.90
2022-08-18T12:30:49.095Z,23.10
2022-08-18T12:38:59.113Z,22.90
2022-08-18T12:41:25.940Z,23.10
2022-08-18T12:43:58.681Z,23.40
2022-08-18T12:46:27.151Z,23.90
2022-08-18T12:48:53.973Z,24.00
2022-08-18T12:54:10.547Z,24.20
2022-08-18T12:56:40.805Z,24.10
2022-08-18T12:59:09.585Z,24.00
2022-08-18T13:01:39.812Z,23.80
2022-08-18T13:04:13.045Z,23.50
2022-08-18T13:06:59.332Z,23.50
2022-08-18T13:09:35.112Z,23.70
2022-08-18T13:12:18.364Z,23.70
2022-08-18T13:14:46.724Z,23.90
2022-08-18T13:17:32.893Z,23.90
2022-08-18T13:20:07.710Z,24.00
2022-08-18T13:22:35.685Z,23.90
2022-08-18T13:25:05.403Z,24.10
2022-08-18T13:27:35.510Z,24.20
2022-08-18T13:30:29.475Z,24.20
2022-08-18T13:32:59.407Z,24.30
2022-08-18T13:35:29.967Z,24.50
2022-08-18T13:38:06.734Z,24.50
2022-08-18T13:40:46.898Z,24.60
2022-08-18T13:43:16.035Z,24.60
2022-08-18T13:45:46.833Z,24.70
2022-08-18T13:48:19.461Z,24.60
2022-08-18T13:50:46.648Z,24.40
2022-08-18T13:53:19.267Z,24.40
2022-08-18T13:55:46.597Z,24.50
2022-08-18T13:58:20.540Z,24.70
2022-08-18T14:00:52.184Z,24.60
2022-08-18T14:03:42.228Z,24.50
2022-08-18T14:06:10.782Z,24.20
2022-08-18T14:08:40.461Z,23.90
2022-08-18T14:11:08.337Z,23.90
2022-08-18T14:13:38.196Z,24.10
2022-08-18T14:16:18.597Z,24.00
2022-08-18T14:19:09.378Z,24.10
2022-08-18T14:22:07.448Z,24.20
2022-08-18T14:24:58.996Z,24.10
2022-08-18T14:27:36.779Z,24.10
2022-08-18T14:30:09.763Z,24.20
2022-08-18T14:32:48.675Z,24.20
2022-08-18T14:35:32.992Z,24.40
2022-08-18T14:38:08.029Z,24.20
2022-08-18T14:40:38.714Z,24.30
2022-08-18T14:43:09.445Z,24.30
2022-08-18T14:45:36.439Z,24.40
2022-08-18T14:48:07.309Z,24.70
2022-08-18T14:50:36.957Z,24.70
2022-08-18T14:53:04.874Z,24.70
2022-08-18T14:55:32.173Z,24.80
2022-08-18T14:57:59.600Z,24.80
2022-08-18T15:00:27.507Z,24.80
2022-08-18T15:02:54.791Z,24.90
2022-08-18T15:05:24.618Z,24.90
2022-08-18T15:07:52.795Z,24.90
2022-08-18T15:10:23.551Z,24.90
2022-08-18T15:12:54.585Z,24.90
2022-08-18T15:15:22.661Z,25.00
2022-08-18T15:17:53.031Z,24.80
2022-08-18T15:20:24.024Z,24.80
2022-08-18T15:23:22.773Z,24.80
2022-08-18T15:25:54.957Z,24.80
2022-08-18T15:28:27.413Z,24.70
2022-08-18T15:33:41.915Z,24.40
2022-08-18T15:36:10.216Z,24.40
2022-08-18T15:38:37.218Z,24.60
2022-08-18T15:41:06.364Z,24.60
2022-08-18T15:43:45.995Z,24.70
2022-08-18T15:46:16.753Z,24.70
2022-08-18T15:48:43.892Z,24.70
2022-08-18T15:51:12.196Z,24.40
2022-08-18T15:53:44.836Z,24.20
2022-08-18T15:56:25.979Z,24.30
2022-08-18T15:58:52.991Z,24.50
2022-08-18T16:01:32.164Z,24.60
2022-08-18T16:04:00.983Z,24.60
2022-08-18T16:06:32.424Z,24.50
2022-08-18T16:09:01.950Z,24.60
2022-08-18T16:11:30.019Z,24.60
2022-08-18T16:14:00.767Z,24.50
2022-08-18T16:16:35.734Z,24.30
2022-08-18T16:19:05.418Z,24.00
2022-08-18T16:21:32.201Z,23.90
2022-08-18T16:23:58.956Z,23.80
2022-08-18T16:26:25.830Z,23.60
2022-08-18T16:28:53.176Z,23.60
2022-08-18T16:31:24.986Z,23.50
2022-08-18T16:33:53.741Z,23.50
2022-08-18T16:36:21.793Z,23.60
2022-08-18T16:38:48.845Z,23.50
2022-08-18T16:41:21.053Z,23.50
2022-08-18T16:43:48.144Z,23.50
2022-08-18T16:46:23.205Z,23.50
2022-08-18T16:48:50.316Z,23.50
2022-08-18T16:51:21.732Z,23.40
2022-08-18T16:53:52.013Z,23.20
2022-08-18T16:56:22.696Z,23.20
2022-08-18T16:59:08.599Z,23.10
2022-08-18T17:01:54.403Z,23.00
2022-08-18T17:04:28.673Z,23.10
2022-08-18T17:06:56.552Z,23.00
2022-08-18T17:09:24.351Z,23.10
2022-08-18T17:11:52.442Z,23.10
2022-08-18T17:14:21.836Z,23.10
2022-08-18T17:16:53.650Z,23.10
2022-08-18T17:19:24.814Z,23.10
2022-08-18T17:21:51.614Z,23.00
2022-08-18T17:24:31.314Z,23.00
2022-08-18T17:27:26.676Z,22.90
2022-08-18T17:30:04.494Z,22.90
2022-08-18T17:32:49.384Z,22.80
2022-08-18T17:35:28.812Z,22.70
2022-08-18T17:38:33.908Z,22.70
2022-08-18T17:41:02.796Z,22.70
2022-08-18T17:43:35.484Z,22.70
2022-08-18T17:46:08.723Z,22.70
2022-08-18T17:48:52.381Z,22.60
2022-08-18T17:51:44.381Z,22.60
2022-08-18T17:54:11.304Z,22.50
2022-08-18T17:56:53.000Z,22.60
2022-08-18T17:59:45.299Z,22.60
2022-08-18T18:02:29.509Z,22.60
2022-08-18T18:05:07.118Z,22.60
2022-08-18T18:07:52.319Z,22.60
2022-08-18T18:10:28.133Z,22.70
2022-08-18T18:13:06.424Z,22.70
2022-08-18T18:15:33.740Z,22.50
2022-08-18T18:18:36.768Z,22.50
2022-08-18T18:21:14.088Z,22.30
2022-08-18T18:23:47.063Z,22.30
2022-08-18T18:26:28.870Z,22.40
2022-08-18T18:29:29.094Z,22.40
2022-08-18T18:32:06.815Z,22.40
2022-08-18T18:34:42.823Z,22.40
2022-08-18T18:37:26.156Z,22.40
2022-08-18T18:39:58.895Z,22.50
2022-08-18T18:42:29.232Z,22.50
2022-08-18T18:45:01.113Z,22.40
2022-08-18T18:47:55.793Z,22.40
2022-08-18T18:50:40.370Z,22.30
2022-08-18T18:53:39.863Z,22.30
2022-08-18T18:56:24.362Z,22.10
2022-08-18T18:59:06.448Z,22.00
2022-08-18T19:01:36.263Z,22.00
2022-08-18T19:04:09.750Z,21.90
2022-08-18T19:07:01.264Z,21.80
2022-08-18T19:09:39.035Z,21.70
2022-08-18T19:12:18.741Z,21.50
2022-08-18T19:14:59.755Z,21.40
2022-08-18T19:17:46.559Z,21.30
2022-08-18T19:20:18.059Z,21.40
2022-08-18T19:22:54.363Z,21.40
2022-08-18T19:25:26.354Z,21.40
2022-08-18T19:28:06.835Z,21.40
2022-08-18T19:30:36.773Z,21.40
2022-08-18T19:33:06.556Z,21.50
2022-08-18T19:36:09.957Z,21.60
2022-08-18T19:38:52.224Z,21.50
2022-08-18T19:41:43.785Z,21.50
2022-08-18T19:44:25.677Z,21.40
2022-08-18T19:46:57.481Z,21.30
2022-08-18T19:49:42.630Z,21.30
2022-08-18T19:52:46.324Z,21.30
2022-08-18T19:55:33.320Z,21.30
2022-08-18T19:58:18.634Z,21.30
2022-08-18T20:00:53.516Z,21.40
2022-08-18T20:03:51.965Z,21.30
2022-08-18T20:06:34.622Z,21.20
2022-08-18T20:09:23.619Z,21.20
2022-08-18T20:12:01.621Z,21.20
2022-08-18T20:14:32.137Z,21.10
2022-08-18T20:17:12.668Z,21.10
2022-08-18T20:19:47.210Z,20.90
2022-08-18T20:22:22.077Z,20.90
2022-08-18T20:25:05.942Z,20.90
2022-08-18T20:27:36.443Z,20.80
2022-08-18T20:30:29.316Z,20.90
2022-08-18T20:33:07.919Z,20.60
2022-08-18T20:35:41.686Z,20.70
2022-08-18T20:38:34.600Z,20.70
2022-08-18T20:41:28.623Z,20.70
2022-08-18T20:44:28.656Z,20.60
2022-08-18T20:47:27.848Z,20.30
2022-08-18T20:50:10.484Z,20.10
2022-08-18T20:53:00.449Z,20.10
2022-08-18T20:55:30.792Z,20.00
2022-08-18T20:58:05.249Z,20.00
2022-08-18T21:00:36.557Z,20.00
2022-08-18T21:03:08.466Z,20.00
2022-08-18T21:05:38.074Z,19.90
2022-08-18T21:08:16.758Z,19.70
2022-08-18T21:10:50.951Z,19.80
2022-08-18T21:13:40.546Z,19.80
2022-08-18T21:16:09.575Z,19.80
2022-08-18T21:18:37.069Z,19.90
2022-08-18T21:21:12.140Z,19.90
2022-08-18T21:23:41.203Z,19.80
2022-08-18T21:26:14.191Z,19.90
2022-08-18T21:28:44.944Z,19.90
2022-08-18T21:31:44.305Z,19.90
2022-08-18T21:34:18.442Z,20.00
2022-08-18T21:36:53.447Z,20.20
2022-08-18T21:39:20.625Z,20.20
2022-08-18T21:41:51.338Z,20.10
2022-08-18T21:44:21.788Z,20.00
2022-08-18T21:46:49.851Z,20.00
2022-08-18T21:49:27.593Z,20.10
2022-08-18T21:51:54.649Z,20.10
2022-08-18T21:54:29.213Z,20.10
2022-08-18T21:57:19.466Z,20.20
2022-08-18T22:00:20.355Z,20.20
2022-08-18T22:02:51.874Z,20.10
2022-08-18T22:05:58.438Z,20.20
2022-08-18T22:08:22.916Z,20.20
2022-08-18T22:11:59.612Z,20.20
2022-08-18T22:14:54.606Z,20.20
2022-08-18T22:17:42.952Z,20.20
2022-08-18T22:20:34.447Z,20.10
2022-08-18T22:23:31.954Z,20.00
2022-08-18T22:26:32.131Z,20.00
2022-08-18T22:29:31.251Z,19.90
2022-08-18T22:31:58.980Z,19.90
2022-08-18T22:34:29.124Z,19.90
2022-08-18T22:37:13.003Z,19.90
2022-08-18T22:39:55.910Z,19.90
2022-08-18T22:42:26.174Z,19.90
2022-08-18T22:44:53.916Z,19.80
2022-08-18T22:47:20.885Z,19.70
2022-08-18T22:49:47.963Z,19.50
2022-08-18T22:52:29.830Z,19.60
2022-08-18T22:55:02.765Z,19.50
2022-08-18T22:57:36.378Z,19.60
2022-08-18T23:00:14.809Z,19.50
2022-08-18T23:02:41.899Z,19.60
2022-08-18T23:05:09.403Z,19.50
2022-08-18T23:07:36.379Z,19.40
2022-08-18T23:10:08.201Z,19.30
2022-08-18T23:12:44.464Z,19.30
2022-08-18T23:15:11.658Z,19.30
2022-08-18T23:17:40.488Z,19.30
2022-08-18T23:20:12.103Z,19.30
2022-08-18T23:22:45.275Z,19.30
2022-08-18T23:25:13.182Z,19.20
2022-08-18T23:27:40.842Z,19.20
2022-08-18T23:30:08.229Z,19.20
2022-08-18T23:32:34.884Z,19.20
2022-08-18T23:35:01.799Z,19.10
2022-08-18T23:37:28.724Z,19.10
2022-08-18T23:39:55.811Z,19.10
2022-08-18T23:42:23.124Z,19.20
2022-08-18T23:44:50.256Z,19.30
2022-08-18T23:47:20.560Z,19.30
2022-08-18T23:49:47.319Z,19.40
2022-08-18T23:52:13.990Z,19.40
2022-08-18T23:54:41.154Z,19.30
2022-08-18T23:57:07.849Z,19.20
2022-08-18T23:59:34.549Z,19.30
